메인 페이지
METAR-TAF:

METAR-TAF

공항 :

그란카나리아 섬, 스페인

위도: 27-56N, 경도: 015-23W, 고도: 23m

현재 날씨관측

예보는 19분 전, 05:30시(UTC)에 발표되었습니다.
21kt
온도 22°C
습도 73%
기압 1016 hPa
시정 10km 이상
고도 2000ft 상공 구름 조금
고도 2500ft 상공 구름 많음

METAR: GCLP 230530Z 01021KT 9999 FEW020 BKN025 22/17 Q1016 NOSIG

시각: 06:49 (05:49 UTC)

예보

예보는 3 시간 49분 전, 02:00시(UTC)에 발표되었습니다.
예보 대상 시간: 23일 03시부터 24일 03시까지 (UTC)
20kt
시정 10km 이상
고도 2500ft 상공 구름 조금
일시적
23일 12시부터 23일 20시까지 (UTC)
25kt, 순간 최대 풍속 35kt
확률 40% :
일시적
23일 10시부터 23일 20시까지 (UTC)
20kt, 순간 최대 풍속 30kt

TAF: GCLP 230200Z 2303/2403 01020KT 9999 FEW025 TX27/2314Z TN20/2305Z TEMPO 2312/2320 36025G35KT PROB40 TEMPO 2310/2320 01020G30KT

4,000개 이상의 공항 관측 자료 및 예보 (METAR 및 TAF 보고).

지도상에서 검색 가능한 기상관측소가 노란 점과 빨간 점으로 표시되어 있습니다.

기상관측소 명을 보려면 표시 위로 마우스를 이동하세요.

날씨 관측과 예보를 보려면 클릭하세요.

지도 변경 : 확대하려면 엑스 표시가 있는 녹색 버튼, 축소하려면 빼기 표시가 있는 녹색 버튼, 다음 페이지의 지도를 보려면 녹색 화살표를 클릭하세요.


METAR-TAF: